createdAt,value
2022-12-19T00:00:37.360Z,80.50
2022-12-19T00:03:05.256Z,75.50
2022-12-19T00:05:37.663Z,76.47
2022-12-19T00:08:12.411Z,67.10
2022-12-19T00:10:45.281Z,71.23
2022-12-19T00:13:15.565Z,71.77
2022-12-19T00:15:44.919Z,71.17
2022-12-19T00:18:12.715Z,73.17
2022-12-19T00:20:40.562Z,72.93
2022-12-19T00:23:08.881Z,69.43
2022-12-19T00:25:37.110Z,73.70
2022-12-19T00:28:07.697Z,69.97
2022-12-19T00:30:36.045Z,72.67
2022-12-19T00:33:05.301Z,69.60
2022-12-19T00:35:32.902Z,69.13
2022-12-19T00:38:00.660Z,70.70
2022-12-19T00:40:29.543Z,67.27
2022-12-19T00:42:57.624Z,69.13
2022-12-19T00:45:27.896Z,71.67
2022-12-19T00:47:57.749Z,66.73
2022-12-19T00:50:26.748Z,69.30
2022-12-19T00:52:54.366Z,73.77
2022-12-19T00:55:21.984Z,73.10
2022-12-19T00:57:49.664Z,66.47
2022-12-19T01:00:20.737Z,73.80
2022-12-19T01:02:48.525Z,65.90
2022-12-19T01:05:16.525Z,66.87
2022-12-19T01:07:45.623Z,65.07
2022-12-19T01:10:13.273Z,73.70
2022-12-19T01:12:45.858Z,68.47
2022-12-19T01:15:15.490Z,67.77
2022-12-19T01:17:44.341Z,75.80
2022-12-19T01:20:15.395Z,72.97
2022-12-19T01:22:43.126Z,68.47
2022-12-19T01:25:12.670Z,63.50
2022-12-19T01:27:40.562Z,62.37
2022-12-19T01:30:09.425Z,66.53
2022-12-19T01:32:37.692Z,68.03
2022-12-19T01:35:06.189Z,72.77
2022-12-19T01:37:37.765Z,65.93
2022-12-19T01:40:07.180Z,72.53
2022-12-19T01:42:37.864Z,72.87
2022-12-19T01:45:21.736Z,67.23
2022-12-19T01:47:54.685Z,70.03
2022-12-19T01:50:28.365Z,69.87
2022-12-19T01:52:57.925Z,71.97
2022-12-19T01:55:26.414Z,68.53
2022-12-19T01:57:57.778Z,67.30
2022-12-19T02:00:26.989Z,68.13
2022-12-19T02:03:00.426Z,71.90
2022-12-19T02:05:28.387Z,67.10
2022-12-19T02:07:56.307Z,68.93
2022-12-19T02:10:24.172Z,67.53
2022-12-19T02:12:51.823Z,65.93
2022-12-19T02:15:21.948Z,69.13
2022-12-19T02:18:11.971Z,69.20
2022-12-19T02:21:08.848Z,66.10
2022-12-19T02:24:07.339Z,64.70
2022-12-19T02:26:56.827Z,65.93
2022-12-19T02:29:54.265Z,66.50
2022-12-19T02:32:31.807Z,69.17
2022-12-19T02:35:10.436Z,70.20
2022-12-19T02:37:50.743Z,65.23
2022-12-19T02:40:25.031Z,67.13
2022-12-19T02:42:59.507Z,64.77
2022-12-19T02:45:31.691Z,66.40
2022-12-19T02:48:08.379Z,70.60
2022-12-19T02:50:39.986Z,71.23
2022-12-19T02:53:10.612Z,66.33
2022-12-19T02:55:45.168Z,65.77
2022-12-19T02:58:35.948Z,66.03
2022-12-19T03:01:15.473Z,68.13
2022-12-19T03:04:00.869Z,63.97
2022-12-19T03:06:37.914Z,69.43
2022-12-19T03:09:14.914Z,66.83
2022-12-19T03:11:43.813Z,68.20
2022-12-19T03:14:15.106Z,64.50
2022-12-19T03:16:42.943Z,69.53
2022-12-19T03:19:15.103Z,69.80
2022-12-19T03:21:45.647Z,64.57
2022-12-19T03:24:17.788Z,69.63
2022-12-19T03:26:50.379Z,70.80
2022-12-19T03:29:22.396Z,63.53
2022-12-19T03:31:50.925Z,64.17
2022-12-19T03:34:24.669Z,69.23
2022-12-19T03:36:57.205Z,68.40
2022-12-19T03:39:26.842Z,61.33
2022-12-19T03:42:13.433Z,59.60
2022-12-19T03:44:43.750Z,57.77
2022-12-19T03:47:16.400Z,59.90
2022-12-19T03:49:46.372Z,58.73
2022-12-19T03:52:26.673Z,59.90
2022-12-19T03:55:02.190Z,60.47
2022-12-19T03:57:35.956Z,59.00
2022-12-19T04:00:07.129Z,61.30
2022-12-19T04:02:48.911Z,60.87
2022-12-19T04:05:21.946Z,57.17
2022-12-19T04:07:52.156Z,61.10
2022-12-19T04:10:22.883Z,62.13
2022-12-19T04:12:55.043Z,63.33
2022-12-19T04:15:33.505Z,56.17
2022-12-19T04:18:04.968Z,54.93
2022-12-19T04:20:38.830Z,56.97
2022-12-19T04:23:13.091Z,51.07
2022-12-19T04:25:44.375Z,53.90
2022-12-19T04:28:21.461Z,55.33
2022-12-19T04:30:50.680Z,51.23
2022-12-19T04:33:18.766Z,57.10
2022-12-19T04:35:47.799Z,56.10
2022-12-19T04:38:15.591Z,56.17
2022-12-19T04:40:43.288Z,52.93
2022-12-19T04:43:11.360Z,58.43
2022-12-19T04:45:39.089Z,52.70
2022-12-19T04:48:07.634Z,52.83
2022-12-19T04:50:36.781Z,52.87
2022-12-19T04:53:06.004Z,57.07
2022-12-19T04:55:33.709Z,50.90
2022-12-19T04:58:04.028Z,55.07
2022-12-19T05:00:31.733Z,52.63
2022-12-19T05:02:59.586Z,54.70
2022-12-19T05:05:27.537Z,54.07
2022-12-19T05:07:59.404Z,54.17
2022-12-19T05:10:28.487Z,49.67
2022-12-19T05:12:56.069Z,51.03
2022-12-19T05:15:23.776Z,51.27
2022-12-19T05:17:51.442Z,53.00
2022-12-19T05:20:19.265Z,47.83
2022-12-19T05:22:46.955Z,52.87
2022-12-19T05:25:15.616Z,54.83
2022-12-19T05:27:44.788Z,51.07
2022-12-19T05:30:13.202Z,58.37
2022-12-19T05:32:41.041Z,53.33
2022-12-19T05:35:09.053Z,51.47
2022-12-19T05:37:36.763Z,54.13
2022-12-19T05:40:05.735Z,53.30
2022-12-19T05:42:33.752Z,54.57
2022-12-19T05:45:02.958Z,49.97
2022-12-19T05:47:30.566Z,54.17
2022-12-19T05:49:58.254Z,49.37
2022-12-19T05:52:25.975Z,51.27
2022-12-19T05:54:53.602Z,50.67
2022-12-19T05:57:21.686Z,52.07
2022-12-19T05:59:49.363Z,56.13
2022-12-19T06:02:18.508Z,49.27
2022-12-19T06:04:46.283Z,53.60
2022-12-19T06:07:19.212Z,52.87
2022-12-19T06:09:48.447Z,49.47
2022-12-19T06:12:16.150Z,50.00
2022-12-19T06:14:43.806Z,54.70
2022-12-19T06:17:11.632Z,51.27
2022-12-19T06:19:40.649Z,49.97
2022-12-19T06:22:08.347Z,49.43
2022-12-19T06:24:39.467Z,55.03
2022-12-19T06:27:07.512Z,53.70
2022-12-19T06:29:35.181Z,49.50
2022-12-19T06:32:03.002Z,47.33
2022-12-19T06:35:02.175Z,48.97
2022-12-19T06:37:20.118Z,52.93
2022-12-19T06:39:47.782Z,47.87
2022-12-19T06:42:23.407Z,46.10
2022-12-19T06:44:52.142Z,51.57
2022-12-19T06:47:20.053Z,51.60
2022-12-19T06:49:48.381Z,51.53
2022-12-19T06:52:16.661Z,51.23
2022-12-19T06:54:46.087Z,54.37
2022-12-19T06:57:13.793Z,59.33
2022-12-19T06:59:41.456Z,52.33
2022-12-19T07:02:22.605Z,46.73
2022-12-19T07:04:57.954Z,51.97
2022-12-19T07:07:26.065Z,50.37
2022-12-19T07:09:55.215Z,53.57
2022-12-19T07:12:22.867Z,55.93
2022-12-19T07:14:53.578Z,52.57
2022-12-19T07:17:23.496Z,49.13
2022-12-19T07:19:51.597Z,52.20
2022-12-19T07:22:19.674Z,49.23
2022-12-19T07:24:47.502Z,58.57
2022-12-19T07:27:16.821Z,53.60
2022-12-19T07:29:44.479Z,53.20
2022-12-19T07:32:12.225Z,54.87
2022-12-19T07:34:39.873Z,52.70
2022-12-19T07:37:07.978Z,52.80
2022-12-19T07:39:35.718Z,54.83
2022-12-19T07:42:04.143Z,56.70
2022-12-19T07:44:38.800Z,55.80
2022-12-19T07:47:08.997Z,52.67
2022-12-19T07:49:37.257Z,52.63
2022-12-19T07:52:05.247Z,51.30
2022-12-19T07:54:33.158Z,51.07
2022-12-19T07:57:02.163Z,51.90
2022-12-19T07:59:35.628Z,51.70
2022-12-19T08:02:08.340Z,53.40
2022-12-19T08:04:36.201Z,50.83
2022-12-19T08:07:04.424Z,53.57
2022-12-19T08:09:33.473Z,50.27
2022-12-19T08:12:01.367Z,57.40
2022-12-19T08:14:29.228Z,53.40
2022-12-19T08:17:19.687Z,54.40
2022-12-19T08:19:45.841Z,51.27
2022-12-19T08:22:13.563Z,52.57
2022-12-19T08:24:41.178Z,53.17
2022-12-19T08:27:08.834Z,57.20
2022-12-19T08:29:36.556Z,52.20
2022-12-19T08:32:04.824Z,52.77
2022-12-19T08:34:32.865Z,53.17
2022-12-19T08:37:01.853Z,52.00
2022-12-19T08:39:30.066Z,59.20
2022-12-19T08:41:57.725Z,56.50
2022-12-19T08:44:25.421Z,59.63
2022-12-19T08:46:53.234Z,52.10
2022-12-19T08:49:21.303Z,51.77
2022-12-19T08:51:49.184Z,52.03
2022-12-19T08:54:18.198Z,53.53
2022-12-19T08:56:47.167Z,55.87
2022-12-19T08:59:16.079Z,56.67
2022-12-19T09:01:57.748Z,52.07
2022-12-19T09:06:02.281Z,56.27
2022-12-19T09:07:15.235Z,53.77
2022-12-19T09:09:45.223Z,54.97
2022-12-19T09:12:13.263Z,54.00
2022-12-19T09:14:41.085Z,52.07
2022-12-19T09:17:08.912Z,54.00
2022-12-19T09:19:37.134Z,54.37
2022-12-19T09:22:05.417Z,57.73
2022-12-19T09:24:33.100Z,54.23
2022-12-19T09:27:02.381Z,59.07
2022-12-19T09:29:35.080Z,53.47
2022-12-19T09:32:03.441Z,61.97
2022-12-19T09:34:37.833Z,55.37
2022-12-19T09:37:07.499Z,57.13
2022-12-19T09:39:35.956Z,55.03
2022-12-19T09:42:23.247Z,53.83
2022-12-19T09:45:09.257Z,56.93
2022-12-19T09:47:45.737Z,55.33
2022-12-19T09:50:27.007Z,56.93
2022-12-19T09:53:00.679Z,52.10
2022-12-19T09:55:34.051Z,54.80
2022-12-19T09:58:11.058Z,55.90
2022-12-19T10:00:43.199Z,58.03
2022-12-19T10:03:19.068Z,56.60
2022-12-19T10:07:00.902Z,53.73
2022-12-19T10:09:12.247Z,54.83
2022-12-19T10:12:46.512Z,54.20
2022-12-19T10:14:50.422Z,52.50
2022-12-19T10:17:28.131Z,51.37
2022-12-19T10:20:20.195Z,55.70
2022-12-19T10:23:00.091Z,54.47
2022-12-19T10:25:37.606Z,56.70
2022-12-19T10:28:16.888Z,58.90
2022-12-19T10:30:52.079Z,54.00
2022-12-19T10:33:27.707Z,53.77
2022-12-19T10:36:01.801Z,52.10
2022-12-19T10:38:36.696Z,55.43
2022-12-19T10:41:16.677Z,56.97
2022-12-19T10:43:53.515Z,53.53
2022-12-19T10:46:33.416Z,57.67
2022-12-19T10:49:01.204Z,55.20
2022-12-19T10:51:32.687Z,52.87
2022-12-19T10:54:01.495Z,55.97
2022-12-19T10:56:37.173Z,54.17
2022-12-19T10:59:16.139Z,50.97
2022-12-19T11:01:46.124Z,55.90
2022-12-19T11:04:30.213Z,52.10
2022-12-19T11:07:07.553Z,54.27
2022-12-19T11:09:39.600Z,51.60
2022-12-19T11:15:33.039Z,57.27
2022-12-19T11:19:29.692Z,54.80
2022-12-19T11:29:14.855Z,53.67
2022-12-19T11:29:25.068Z,54.07
2022-12-19T11:30:08.662Z,52.77
2022-12-19T11:30:46.769Z,53.27
2022-12-19T11:32:41.342Z,58.03
2022-12-19T11:35:25.379Z,56.17
2022-12-19T11:38:06.571Z,52.50
2022-12-19T11:40:46.530Z,58.03
2022-12-19T11:43:43.611Z,53.47
2022-12-19T11:46:21.459Z,53.90
2022-12-19T11:48:54.691Z,53.60
2022-12-19T11:51:29.314Z,52.27
2022-12-19T11:54:07.235Z,55.97
2022-12-19T11:56:35.651Z,56.87
2022-12-19T11:59:13.353Z,52.93
2022-12-19T12:01:53.248Z,49.73
2022-12-19T12:04:39.732Z,52.17
2022-12-19T12:07:19.231Z,52.40
2022-12-19T12:14:40.620Z,51.57
2022-12-19T12:22:18.887Z,49.33
2022-12-19T12:30:59.035Z,53.03
2022-12-19T12:31:06.805Z,48.50
2022-12-19T12:31:18.171Z,45.90
2022-12-19T12:31:52.736Z,52.33
2022-12-19T12:32:04.007Z,54.73
2022-12-19T12:35:48.611Z,54.43
2022-12-19T12:40:03.656Z,53.37
2022-12-19T12:42:44.444Z,57.63
2022-12-19T12:45:20.682Z,52.77
2022-12-19T12:47:52.520Z,54.17
2022-12-19T12:50:23.688Z,51.37
2022-12-19T12:52:55.738Z,54.07
2022-12-19T12:55:29.639Z,54.17
2022-12-19T12:57:57.721Z,55.57
2022-12-19T13:00:28.209Z,49.83
2022-12-19T13:03:03.510Z,53.17
2022-12-19T13:05:42.118Z,50.10
2022-12-19T13:08:36.177Z,54.67
2022-12-19T13:11:07.556Z,49.63
2022-12-19T13:13:56.313Z,55.57
2022-12-19T13:16:52.982Z,53.70
2022-12-19T13:19:28.414Z,57.40
2022-12-19T13:22:19.401Z,51.60
2022-12-19T13:24:50.040Z,50.60
2022-12-19T13:27:40.380Z,54.33
2022-12-19T13:30:19.178Z,53.77
2022-12-19T13:33:12.422Z,52.67
2022-12-19T13:37:55.702Z,53.33
2022-12-19T13:40:01.047Z,50.27
2022-12-19T13:41:48.015Z,55.27
2022-12-19T13:44:20.206Z,53.07
2022-12-19T13:46:47.953Z,53.37
2022-12-19T13:49:20.295Z,55.77
2022-12-19T13:51:50.096Z,55.37
2022-12-19T13:54:26.884Z,52.50
2022-12-19T13:56:55.745Z,60.67
2022-12-19T13:59:27.465Z,55.20
2022-12-19T14:01:56.427Z,57.87
2022-12-19T14:04:29.999Z,56.67
2022-12-19T14:07:01.462Z,56.93
2022-12-19T14:11:26.111Z,61.80
2022-12-19T14:13:46.259Z,56.80
2022-12-19T14:15:34.086Z,62.83
2022-12-19T14:18:41.899Z,57.87
2022-12-19T14:22:10.785Z,57.43
2022-12-19T14:23:43.736Z,54.37
2022-12-19T14:28:17.739Z,55.17
2022-12-19T14:29:09.364Z,54.47
2022-12-19T14:32:40.282Z,48.23
2022-12-19T14:35:03.975Z,53.83
2022-12-19T14:38:13.073Z,53.37
2022-12-19T14:40:24.447Z,53.50
2022-12-19T14:43:58.918Z,56.87
2022-12-19T14:54:07.518Z,56.67
2022-12-19T14:54:15.867Z,57.60
2022-12-19T14:54:41.627Z,56.10
2022-12-19T14:58:51.207Z,55.33
2022-12-19T15:01:09.741Z,52.83
2022-12-19T15:03:22.848Z,56.77
2022-12-19T15:05:53.206Z,52.87
2022-12-19T15:09:50.558Z,54.73
2022-12-19T15:11:58.223Z,53.70
2022-12-19T15:14:53.929Z,54.23
2022-12-19T15:17:26.719Z,51.80
2022-12-19T15:19:55.859Z,62.30
2022-12-19T15:22:25.494Z,55.77
2022-12-19T15:24:54.238Z,63.27
2022-12-19T15:27:22.809Z,57.00
2022-12-19T15:29:50.952Z,54.07
2022-12-19T15:32:19.021Z,53.20
2022-12-19T15:34:51.466Z,59.13
2022-12-19T15:37:19.707Z,60.80
2022-12-19T15:39:48.776Z,74.23
2022-12-19T15:42:20.767Z,78.13
2022-12-19T15:44:50.229Z,59.30
2022-12-19T15:47:20.559Z,63.27
2022-12-19T15:49:48.477Z,62.73
2022-12-19T15:52:18.904Z,62.27
2022-12-19T15:54:50.113Z,60.50
2022-12-19T15:57:25.302Z,62.37
2022-12-19T15:59:53.461Z,64.37
2022-12-19T16:02:23.760Z,62.77
2022-12-19T16:04:56.902Z,60.73
2022-12-19T16:07:30.423Z,61.17
2022-12-19T16:09:59.434Z,66.50
2022-12-19T16:12:32.772Z,62.60
2022-12-19T16:15:02.568Z,62.10
2022-12-19T16:17:33.173Z,57.50
2022-12-19T16:20:00.891Z,61.73
2022-12-19T16:22:29.950Z,58.37
2022-12-19T16:24:59.045Z,58.13
2022-12-19T16:27:28.957Z,57.43
2022-12-19T16:29:59.331Z,57.00
2022-12-19T16:32:27.137Z,56.77
2022-12-19T16:34:55.653Z,63.50
2022-12-19T16:37:28.505Z,54.63
2022-12-19T16:39:56.419Z,58.33
2022-12-19T16:42:25.606Z,58.60
2022-12-19T16:44:53.590Z,60.23
2022-12-19T16:47:21.363Z,63.47
2022-12-19T16:49:49.155Z,60.63
2022-12-19T16:52:16.902Z,58.13
2022-12-19T16:54:44.595Z,62.07
2022-12-19T16:57:20.635Z,56.53
2022-12-19T16:59:51.307Z,59.57
2022-12-19T17:02:40.699Z,60.07
2022-12-19T17:05:16.127Z,61.53
2022-12-19T17:07:44.627Z,66.77
2022-12-19T17:10:13.164Z,60.40
2022-12-19T17:12:41.404Z,63.77
2022-12-19T17:15:22.419Z,66.47
2022-12-19T17:17:51.163Z,62.73
2022-12-19T17:20:21.782Z,55.77
2022-12-19T17:22:49.671Z,59.13
2022-12-19T17:25:21.083Z,61.47
2022-12-19T17:27:49.632Z,61.20
2022-12-19T17:30:19.919Z,62.30
2022-12-19T17:32:50.326Z,61.10
2022-12-19T17:35:25.731Z,60.90
2022-12-19T17:37:57.548Z,57.17
2022-12-19T17:40:27.171Z,57.10
2022-12-19T17:42:55.544Z,60.53
2022-12-19T17:45:25.798Z,82.27
2022-12-19T17:48:02.046Z,81.03
2022-12-19T17:50:31.699Z,84.00
2022-12-19T17:52:59.790Z,87.97
2022-12-19T17:55:29.567Z,86.50
2022-12-19T17:57:58.106Z,81.80
2022-12-19T18:00:30.924Z,81.17
2022-12-19T18:03:04.527Z,81.37
2022-12-19T18:05:35.744Z,82.30
2022-12-19T18:08:04.675Z,82.83
2022-12-19T18:10:33.094Z,79.43
2022-12-19T18:13:01.093Z,75.73
2022-12-19T18:15:30.204Z,86.47
2022-12-19T18:17:58.529Z,76.97
2022-12-19T18:20:31.780Z,77.23
2022-12-19T18:23:04.216Z,83.37
2022-12-19T18:25:35.177Z,77.33
2022-12-19T18:28:03.152Z,76.40
2022-12-19T18:30:32.373Z,82.53
2022-12-19T18:33:02.372Z,78.13
2022-12-19T18:35:34.875Z,79.83
2022-12-19T18:38:07.883Z,71.27
2022-12-19T18:40:35.776Z,80.73
2022-12-19T18:43:03.445Z,80.10
2022-12-19T18:45:36.215Z,79.43
2022-12-19T18:48:08.334Z,85.37
2022-12-19T18:50:36.221Z,83.53
2022-12-19T18:53:07.477Z,80.50
2022-12-19T18:55:35.582Z,73.47
2022-12-19T18:58:03.365Z,68.80
2022-12-19T19:00:31.721Z,62.90
2022-12-19T19:03:04.020Z,64.30
2022-12-19T19:05:33.273Z,69.00
2022-12-19T19:08:12.892Z,60.53
2022-12-19T19:10:40.611Z,69.20
2022-12-19T19:13:12.177Z,64.03
2022-12-19T19:15:46.536Z,61.33
2022-12-19T19:18:17.442Z,58.67
2022-12-19T19:20:46.833Z,64.90
2022-12-19T19:23:15.229Z,61.00
2022-12-19T19:25:43.410Z,62.07
2022-12-19T19:28:11.233Z,61.93
2022-12-19T19:30:40.673Z,56.80
2022-12-19T19:33:14.076Z,59.83
2022-12-19T19:35:45.828Z,62.67
2022-12-19T19:38:16.342Z,60.90
2022-12-19T19:40:44.148Z,57.27
2022-12-19T19:43:11.827Z,52.67
2022-12-19T19:45:43.366Z,53.73
2022-12-19T19:48:11.833Z,54.97
2022-12-19T19:50:39.928Z,55.37
2022-12-19T19:53:09.035Z,56.07
2022-12-19T19:55:36.815Z,53.50
2022-12-19T19:58:05.209Z,50.57
2022-12-19T20:00:33.181Z,53.03
2022-12-19T20:03:05.612Z,48.60
2022-12-19T20:05:35.937Z,54.40
2022-12-19T20:08:03.797Z,49.60
2022-12-19T20:10:32.954Z,49.73
2022-12-19T20:13:00.782Z,49.70
2022-12-19T20:15:28.551Z,52.57
2022-12-19T20:17:56.281Z,54.00
2022-12-19T20:20:25.016Z,51.83
2022-12-19T20:22:52.808Z,51.33
2022-12-19T20:25:20.440Z,62.33
2022-12-19T20:27:49.419Z,66.03
2022-12-19T20:30:18.083Z,61.77
2022-12-19T20:32:45.768Z,64.93
2022-12-19T20:35:15.037Z,60.50
2022-12-19T20:37:43.008Z,66.40
2022-12-19T20:40:11.632Z,66.07
2022-12-19T20:42:39.312Z,68.63
2022-12-19T20:45:09.328Z,63.53
2022-12-19T20:47:37.134Z,68.73
2022-12-19T20:50:06.023Z,74.70
2022-12-19T20:52:33.878Z,67.57
2022-12-19T20:55:01.592Z,71.80
2022-12-19T20:57:30.442Z,70.60
2022-12-19T20:59:58.159Z,65.53
2022-12-19T21:02:27.514Z,65.77
2022-12-19T21:04:55.456Z,61.83
2022-12-19T21:07:23.666Z,61.33
2022-12-19T21:09:53.928Z,61.47
2022-12-19T21:12:22.479Z,66.97
2022-12-19T21:14:50.730Z,76.93
2022-12-19T21:17:18.456Z,72.33
2022-12-19T21:19:48.314Z,78.07
2022-12-19T21:22:16.227Z,76.17
2022-12-19T21:24:43.855Z,80.53
2022-12-19T21:27:11.519Z,74.57
2022-12-19T21:29:39.399Z,70.50
2022-12-19T21:32:09.126Z,75.07
2022-12-19T21:34:38.747Z,70.97
2022-12-19T21:37:07.772Z,70.40
2022-12-19T21:39:35.401Z,71.03
2022-12-19T21:42:03.552Z,66.13
2022-12-19T21:44:31.409Z,66.30
2022-12-19T21:46:59.387Z,66.77
2022-12-19T21:49:27.253Z,67.90
2022-12-19T21:51:55.346Z,71.77
2022-12-19T21:54:24.793Z,70.80
2022-12-19T21:56:52.457Z,68.83
2022-12-19T21:59:20.136Z,74.47
2022-12-19T22:01:47.981Z,71.97
2022-12-19T22:04:21.157Z,76.80
2022-12-19T22:06:50.004Z,69.20
2022-12-19T22:09:20.172Z,71.73
2022-12-19T22:11:49.668Z,72.23
2022-12-19T22:14:18.227Z,67.63
2022-12-19T22:16:46.140Z,68.23
2022-12-19T22:19:15.134Z,64.80
2022-12-19T22:21:42.837Z,62.67
2022-12-19T22:24:12.637Z,63.07
2022-12-19T22:26:40.727Z,61.13
2022-12-19T22:29:11.547Z,63.07
2022-12-19T22:31:40.703Z,59.53
2022-12-19T22:34:11.233Z,63.93
2022-12-19T22:36:40.599Z,69.20
2022-12-19T22:39:10.747Z,71.63
2022-12-19T22:41:39.500Z,71.47
2022-12-19T22:44:09.781Z,70.97
2022-12-19T22:46:38.722Z,75.93
2022-12-19T22:49:09.270Z,89.07
2022-12-19T22:51:37.800Z,111.70
2022-12-19T22:54:06.535Z,118.30
2022-12-19T22:56:35.554Z,103.07
2022-12-19T22:59:06.484Z,91.47
2022-12-19T23:01:37.893Z,75.00
2022-12-19T23:04:07.811Z,77.73
2022-12-19T23:06:37.156Z,86.30
2022-12-19T23:09:06.255Z,86.03
2022-12-19T23:11:36.103Z,82.23
2022-12-19T23:14:05.465Z,77.13
2022-12-19T23:16:33.168Z,79.70
2022-12-19T23:19:02.220Z,84.27
2022-12-19T23:21:30.025Z,75.20
2022-12-19T23:23:57.827Z,70.87
2022-12-19T23:26:28.074Z,66.97
2022-12-19T23:28:58.937Z,62.30
2022-12-19T23:31:27.738Z,62.53
2022-12-19T23:33:56.334Z,65.87
2022-12-19T23:39:14.981Z,57.13
2022-12-19T23:41:42.998Z,64.07
2022-12-19T23:44:11.756Z,58.23
2022-12-19T23:46:39.960Z,60.37
2022-12-19T23:49:07.970Z,59.27
2022-12-19T23:51:37.029Z,57.30
2022-12-19T23:54:05.005Z,56.90
2022-12-19T23:56:33.226Z,57.60
2022-12-19T23:59:01.282Z,58.47
